sensor_id;sensor_type;location;lat;lon;timestamp;pressure;altitude;pressure_sealevel;temperature
61390;BMP280;47260;48.274;19.814;2023-03-17T00:01:06;100195.00;;;-1.66
61390;BMP280;47260;48.274;19.814;2023-03-17T00:02:39;100201.03;;;-1.66
61390;BMP280;47260;48.274;19.814;2023-03-17T00:04:12;100196.47;;;-1.65
61390;BMP280;47260;48.274;19.814;2023-03-17T00:05:44;100201.78;;;-1.69
61390;BMP280;47260;48.274;19.814;2023-03-17T00:07:16;100195.78;;;-1.73
61390;BMP280;47260;48.274;19.814;2023-03-17T00:08:49;100203.69;;;-1.76
61390;BMP280;47260;48.274;19.814;2023-03-17T00:10:24;100209.31;;;-1.78
61390;BMP280;47260;48.274;19.814;2023-03-17T00:11:56;100205.94;;;-1.78
61390;BMP280;47260;48.274;19.814;2023-03-17T00:13:28;100204.78;;;-1.77
61390;BMP280;47260;48.274;19.814;2023-03-17T00:15:00;100203.31;;;-1.78
61390;BMP280;47260;48.274;19.814;2023-03-17T00:16:35;100200.69;;;-1.78
61390;BMP280;47260;48.274;19.814;2023-03-17T00:18:11;100202.56;;;-1.79
61390;BMP280;47260;48.274;19.814;2023-03-17T00:19:44;100200.28;;;-1.77
61390;BMP280;47260;48.274;19.814;2023-03-17T00:21:20;100198.03;;;-1.78
61390;BMP280;47260;48.274;19.814;2023-03-17T00:22:54;100196.16;;;-1.74
61390;BMP280;47260;48.274;19.814;2023-03-17T00:24:29;100192.75;;;-1.71
61390;BMP280;47260;48.274;19.814;2023-03-17T00:26:00;100192.00;;;-1.72
61390;BMP280;47260;48.274;19.814;2023-03-17T00:27:32;100192.38;;;-1.73
61390;BMP280;47260;48.274;19.814;2023-03-17T00:29:03;100188.25;;;-1.71
61390;BMP280;47260;48.274;19.814;2023-03-17T00:30:35;100191.25;;;-1.69
61390;BMP280;47260;48.274;19.814;2023-03-17T00:32:15;100184.09;;;-1.68
61390;BMP280;47260;48.274;19.814;2023-03-17T00:33:48;100184.84;;;-1.75
61390;BMP280;47260;48.274;19.814;2023-03-17T00:35:26;100193.91;;;-1.79
61390;BMP280;47260;48.274;19.814;2023-03-17T00:36:58;100189.38;;;-1.82
61390;BMP280;47260;48.274;19.814;2023-03-17T00:38:30;100190.91;;;-1.78
61390;BMP280;47260;48.274;19.814;2023-03-17T00:40:07;100189.78;;;-1.84
61390;BMP280;47260;48.274;19.814;2023-03-17T00:41:39;100192.38;;;-1.88
61390;BMP280;47260;48.274;19.814;2023-03-17T00:43:12;100193.88;;;-1.90
61390;BMP280;47260;48.274;19.814;2023-03-17T00:44:44;100189.38;;;-1.97
61390;BMP280;47260;48.274;19.814;2023-03-17T00:46:19;100180.00;;;-2.01
61390;BMP280;47260;48.274;19.814;2023-03-17T00:47:53;100189.78;;;-2.02
61390;BMP280;47260;48.274;19.814;2023-03-17T00:49:26;100186.41;;;-2.06
61390;BMP280;47260;48.274;19.814;2023-03-17T00:50:58;100183.00;;;-2.10
61390;BMP280;47260;48.274;19.814;2023-03-17T00:52:32;100185.25;;;-2.15
61390;BMP280;47260;48.274;19.814;2023-03-17T00:54:04;100192.03;;;-2.18
61390;BMP280;47260;48.274;19.814;2023-03-17T00:55:37;100188.28;;;-2.20
61390;BMP280;47260;48.274;19.814;2023-03-17T00:57:10;100187.53;;;-2.21
61390;BMP280;47260;48.274;19.814;2023-03-17T00:58:42;100184.91;;;-2.21
61390;BMP280;47260;48.274;19.814;2023-03-17T01:00:21;100189.78;;;-2.23
61390;BMP280;47260;48.274;19.814;2023-03-17T01:01:54;100183.38;;;-2.25
61390;BMP280;47260;48.274;19.814;2023-03-17T01:03:25;100181.53;;;-2.25
61390;BMP280;47260;48.274;19.814;2023-03-17T01:04:59;100180.00;;;-2.22
61390;BMP280;47260;48.274;19.814;2023-03-17T01:06:30;100179.66;;;-2.21
61390;BMP280;47260;48.274;19.814;2023-03-17T01:08:02;100185.25;;;-2.15
61390;BMP280;47260;48.274;19.814;2023-03-17T01:09:34;100181.13;;;-2.20
61390;BMP280;47260;48.274;19.814;2023-03-17T01:11:13;100182.66;;;-2.19
61390;BMP280;47260;48.274;19.814;2023-03-17T01:12:47;100189.78;;;-2.19
61390;BMP280;47260;48.274;19.814;2023-03-17T01:14:19;100181.91;;;-2.19
61390;BMP280;47260;48.274;19.814;2023-03-17T01:15:51;100184.50;;;-2.23
61390;BMP280;47260;48.274;19.814;2023-03-17T01:17:23;100186.75;;;-2.32
61390;BMP280;47260;48.274;19.814;2023-03-17T01:18:54;100178.13;;;-2.36
61390;BMP280;47260;48.274;19.814;2023-03-17T01:20:28;100188.63;;;-2.39
61390;BMP280;47260;48.274;19.814;2023-03-17T01:22:00;100186.00;;;-2.43
61390;BMP280;47260;48.274;19.814;2023-03-17T01:23:31;100184.13;;;-2.50
61390;BMP280;47260;48.274;19.814;2023-03-17T01:25:03;100186.34;;;-2.55
61390;BMP280;47260;48.274;19.814;2023-03-17T01:26:36;100183.00;;;-2.59
61390;BMP280;47260;48.274;19.814;2023-03-17T01:28:09;100186.72;;;-2.60
61390;BMP280;47260;48.274;19.814;2023-03-17T01:29:44;100186.72;;;-2.60
61390;BMP280;47260;48.274;19.814;2023-03-17T01:31:16;100186.72;;;-2.60
61390;BMP280;47260;48.274;19.814;2023-03-17T01:32:47;100193.88;;;-2.61
61390;BMP280;47260;48.274;19.814;2023-03-17T01:34:19;100191.25;;;-2.61
61390;BMP280;47260;48.274;19.814;2023-03-17T01:35:50;100194.63;;;-2.60
61390;BMP280;47260;48.274;19.814;2023-03-17T01:37:22;100196.84;;;-2.62
61390;BMP280;47260;48.274;19.814;2023-03-17T01:38:54;100192.38;;;-2.62
61390;BMP280;47260;48.274;19.814;2023-03-17T01:40:28;100192.75;;;-2.60
61390;BMP280;47260;48.274;19.814;2023-03-17T01:42:02;100201.75;;;-2.50
61390;BMP280;47260;48.274;19.814;2023-03-17T01:43:35;100194.25;;;-2.52
61390;BMP280;47260;48.274;19.814;2023-03-17T01:47:14;100209.28;;;-2.52
61390;BMP280;47260;48.274;19.814;2023-03-17T01:48:50;100208.53;;;-2.53
61390;BMP280;47260;48.274;19.814;2023-03-17T01:50:23;100206.66;;;-2.52
61390;BMP280;47260;48.274;19.814;2023-03-17T01:52:02;100211.53;;;-2.54
61390;BMP280;47260;48.274;19.814;2023-03-17T01:53:37;100204.75;;;-2.55
61390;BMP280;47260;48.274;19.814;2023-03-17T01:55:11;100206.66;;;-2.59
61390;BMP280;47260;48.274;19.814;2023-03-17T01:56:46;100214.53;;;-2.59
61390;BMP280;47260;48.274;19.814;2023-03-17T01:58:23;100211.84;;;-2.63
61390;BMP280;47260;48.274;19.814;2023-03-17T01:59:58;100212.63;;;-2.66
61390;BMP280;47260;48.274;19.814;2023-03-17T02:01:37;100214.47;;;-2.73
61390;BMP280;47260;48.274;19.814;2023-03-17T02:03:11;100209.97;;;-2.76
61390;BMP280;47260;48.274;19.814;2023-03-17T02:04:43;100211.81;;;-2.80
61390;BMP280;47260;48.274;19.814;2023-03-17T02:06:15;100215.94;;;-2.83
61390;BMP280;47260;48.274;19.814;2023-03-17T02:07:46;100211.44;;;-2.86
61390;BMP280;47260;48.274;19.814;2023-03-17T02:09:18;100213.69;;;-2.84
61390;BMP280;47260;48.274;19.814;2023-03-17T02:10:49;100215.22;;;-2.80
61390;BMP280;47260;48.274;19.814;2023-03-17T02:12:22;100218.59;;;-2.79
61390;BMP280;47260;48.274;19.814;2023-03-17T02:13:55;100219.69;;;-2.80
61390;BMP280;47260;48.274;19.814;2023-03-17T02:15:36;100211.44;;;-2.82
61390;BMP280;47260;48.274;19.814;2023-03-17T02:17:08;100216.72;;;-2.79
61390;BMP280;47260;48.274;19.814;2023-03-17T02:18:40;100212.94;;;-2.78
61390;BMP280;47260;48.274;19.814;2023-03-17T02:22:05;100215.22;;;-2.83
61390;BMP280;47260;48.274;19.814;2023-03-17T02:23:37;100220.06;;;-2.85
61390;BMP280;47260;48.274;19.814;2023-03-17T02:25:10;100216.69;;;-2.89
61390;BMP280;47260;48.274;19.814;2023-03-17T02:26:43;100218.56;;;-2.90
61390;BMP280;47260;48.274;19.814;2023-03-17T02:28:21;100218.19;;;-2.92
61390;BMP280;47260;48.274;19.814;2023-03-17T02:29:52;100218.88;;;-2.95
61390;BMP280;47260;48.274;19.814;2023-03-17T02:31:25;100216.25;;;-2.95
61390;BMP280;47260;48.274;19.814;2023-03-17T02:32:56;100214.00;;;-2.93
61390;BMP280;47260;48.274;19.814;2023-03-17T02:34:28;100224.88;;;-2.98
61390;BMP280;47260;48.274;19.814;2023-03-17T02:36:01;100217.75;;;-3.01
61390;BMP280;47260;48.274;19.814;2023-03-17T02:37:34;100212.09;;;-3.03
61390;BMP280;47260;48.274;19.814;2023-03-17T02:39:06;100216.59;;;-3.07
61390;BMP280;47260;48.274;19.814;2023-03-17T02:40:38;100223.72;;;-3.08
61390;BMP280;47260;48.274;19.814;2023-03-17T02:42:09;100227.88;;;-3.06
61390;BMP280;47260;48.274;19.814;2023-03-17T02:43:42;100229.34;;;-3.05
61390;BMP280;47260;48.274;19.814;2023-03-17T02:45:13;100223.72;;;-3.08
61390;BMP280;47260;48.274;19.814;2023-03-17T02:46:44;100223.34;;;-3.10
61390;BMP280;47260;48.274;19.814;2023-03-17T02:48:16;100220.72;;;-3.10
61390;BMP280;47260;48.274;19.814;2023-03-17T02:49:48;100225.97;;;-3.10
61390;BMP280;47260;48.274;19.814;2023-03-17T02:51:20;100221.84;;;-3.11
61390;BMP280;47260;48.274;19.814;2023-03-17T02:52:53;100216.59;;;-3.14
61390;BMP280;47260;48.274;19.814;2023-03-17T02:54:25;100213.56;;;-3.16
61390;BMP280;47260;48.274;19.814;2023-03-17T02:55:56;100224.09;;;-3.13
61390;BMP280;47260;48.274;19.814;2023-03-17T02:57:28;100227.47;;;-3.12
61390;BMP280;47260;48.274;19.814;2023-03-17T02:58:59;100222.94;;;-3.15
61390;BMP280;47260;48.274;19.814;2023-03-17T03:00:31;100225.94;;;-3.17
61390;BMP280;47260;48.274;19.814;2023-03-17T03:02:03;100228.56;;;-3.17
61390;BMP280;47260;48.274;19.814;2023-03-17T03:03:35;100234.19;;;-3.18
61390;BMP280;47260;48.274;19.814;2023-03-17T03:05:06;100231.56;;;-3.18
61390;BMP280;47260;48.274;19.814;2023-03-17T03:06:38;100230.06;;;-3.19
61390;BMP280;47260;48.274;19.814;2023-03-17T03:08:13;100230.81;;;-3.19
61390;BMP280;47260;48.274;19.814;2023-03-17T03:09:44;100239.81;;;-3.20
61390;BMP280;47260;48.274;19.814;2023-03-17T03:11:16;100228.53;;;-3.24
61390;BMP280;47260;48.274;19.814;2023-03-17T03:12:48;100235.25;;;-3.26
61390;BMP280;47260;48.274;19.814;2023-03-17T03:14:19;100233.75;;;-3.27
61390;BMP280;47260;48.274;19.814;2023-03-17T03:15:51;100229.59;;;-3.32
61390;BMP280;47260;48.274;19.814;2023-03-17T03:17:21;100220.19;;;-3.40
61390;BMP280;47260;48.274;19.814;2023-03-17T03:18:53;100229.88;;;-3.47
61390;BMP280;47260;48.274;19.814;2023-03-17T03:20:25;100228.72;;;-3.50
61390;BMP280;47260;48.274;19.814;2023-03-17T03:21:56;100223.09;;;-3.52
61390;BMP280;47260;48.274;19.814;2023-03-17T03:23:29;100224.63;;;-3.51
61390;BMP280;47260;48.274;19.814;2023-03-17T03:25:00;100226.88;;;-3.49
61390;BMP280;47260;48.274;19.814;2023-03-17T03:26:31;100227.63;;;-3.49
61390;BMP280;47260;48.274;19.814;2023-03-17T03:28:04;100228.38;;;-3.48
61390;BMP280;47260;48.274;19.814;2023-03-17T03:29:35;100225.38;;;-3.47
61390;BMP280;47260;48.274;19.814;2023-03-17T03:31:08;100220.84;;;-3.50
61390;BMP280;47260;48.274;19.814;2023-03-17T03:32:40;100220.47;;;-3.52
61390;BMP280;47260;48.274;19.814;2023-03-17T03:34:10;100218.19;;;-3.57
61390;BMP280;47260;48.274;19.814;2023-03-17T03:35:42;100217.81;;;-3.59
61390;BMP280;47260;48.274;19.814;2023-03-17T03:37:15;100219.72;;;-3.56
61390;BMP280;47260;48.274;19.814;2023-03-17T03:38:47;100220.84;;;-3.53
61390;BMP280;47260;48.274;19.814;2023-03-17T03:40:18;100213.75;;;-3.49
61390;BMP280;47260;48.274;19.814;2023-03-17T03:41:49;100215.22;;;-3.52
61390;BMP280;47260;48.274;19.814;2023-03-17T03:43:21;100211.84;;;-3.56
61390;BMP280;47260;48.274;19.814;2023-03-17T03:44:52;100206.56;;;-3.59
61390;BMP280;47260;48.274;19.814;2023-03-17T03:46:23;100209.94;;;-3.59
61390;BMP280;47260;48.274;19.814;2023-03-17T03:47:55;100208.09;;;-3.58
61390;BMP280;47260;48.274;19.814;2023-03-17T03:49:26;100216.31;;;-3.60
61390;BMP280;47260;48.274;19.814;2023-03-17T03:50:59;100209.16;;;-3.66
61390;BMP280;47260;48.274;19.814;2023-03-17T03:52:31;100205.00;;;-3.67
61390;BMP280;47260;48.274;19.814;2023-03-17T03:54:04;100208.03;;;-3.69
61390;BMP280;47260;48.274;19.814;2023-03-17T03:55:36;100199.31;;;-3.73
61390;BMP280;47260;48.274;19.814;2023-03-17T03:57:08;100200.81;;;-3.76
61390;BMP280;47260;48.274;19.814;2023-03-17T03:58:39;100206.06;;;-3.76
61390;BMP280;47260;48.274;19.814;2023-03-17T04:00:13;100206.81;;;-3.75
61390;BMP280;47260;48.274;19.814;2023-03-17T04:01:44;100213.56;;;-3.74
61390;BMP280;47260;48.274;19.814;2023-03-17T04:03:15;100206.81;;;-3.75
61390;BMP280;47260;48.274;19.814;2023-03-17T04:04:47;100201.56;;;-3.75
61390;BMP280;47260;48.274;19.814;2023-03-17T04:06:18;100201.19;;;-3.77
61390;BMP280;47260;48.274;19.814;2023-03-17T04:07:49;100204.53;;;-3.80
61390;BMP280;47260;48.274;19.814;2023-03-17T04:09:22;100207.16;;;-3.84
61390;BMP280;47260;48.274;19.814;2023-03-17T04:10:53;100209.03;;;-3.81
61390;BMP280;47260;48.274;19.814;2023-03-17T04:12:25;100205.66;;;-3.81
61390;BMP280;47260;48.274;19.814;2023-03-17T04:13:56;100201.16;;;-3.81
61390;BMP280;47260;48.274;19.814;2023-03-17T04:15:27;100200.78;;;-3.83
61390;BMP280;47260;48.274;19.814;2023-03-17T04:16:59;100199.63;;;-3.85
61390;BMP280;47260;48.274;19.814;2023-03-17T04:18:31;100196.63;;;-3.87
61390;BMP280;47260;48.274;19.814;2023-03-17T04:20:03;100200.34;;;-3.92
61390;BMP280;47260;48.274;19.814;2023-03-17T04:21:35;100200.28;;;-3.95
61390;BMP280;47260;48.274;19.814;2023-03-17T04:23:06;100199.53;;;-3.99
61390;BMP280;47260;48.274;19.814;2023-03-17T04:24:39;100205.88;;;-4.00
61390;BMP280;47260;48.274;19.814;2023-03-17T04:26:10;100204.72;;;-4.03
61390;BMP280;47260;48.274;19.814;2023-03-17T04:27:42;100199.50;;;-4.03
61390;BMP280;47260;48.274;19.814;2023-03-17T04:29:14;100202.88;;;-4.02
61390;BMP280;47260;48.274;19.814;2023-03-17T04:30:46;100199.88;;;-4.01
61390;BMP280;47260;48.274;19.814;2023-03-17T04:32:18;100195.75;;;-4.02
61390;BMP280;47260;48.274;19.814;2023-03-17T04:33:49;100199.16;;;-4.01
61390;BMP280;47260;48.274;19.814;2023-03-17T04:35:21;100209.25;;;-4.00
61390;BMP280;47260;48.274;19.814;2023-03-17T04:36:54;100207.75;;;-4.01
61390;BMP280;47260;48.274;19.814;2023-03-17T04:38:26;100207.75;;;-4.01
61390;BMP280;47260;48.274;19.814;2023-03-17T04:39:59;100206.25;;;-3.98
61390;BMP280;47260;48.274;19.814;2023-03-17T04:41:31;100206.25;;;-3.98
61390;BMP280;47260;48.274;19.814;2023-03-17T04:43:01;100201.44;;;-3.96
61390;BMP280;47260;48.274;19.814;2023-03-17T04:44:33;100209.28;;;-3.96
61390;BMP280;47260;48.274;19.814;2023-03-17T04:46:06;100217.88;;;-3.96
61390;BMP280;47260;48.274;19.814;2023-03-17T04:47:37;100219.78;;;-3.96
61390;BMP280;47260;48.274;19.814;2023-03-17T04:49:08;100215.28;;;-3.96
61390;BMP280;47260;48.274;19.814;2023-03-17T04:50:41;100215.28;;;-3.96
61390;BMP280;47260;48.274;19.814;2023-03-17T04:52:12;100221.34;;;-3.92
61390;BMP280;47260;48.274;19.814;2023-03-17T04:53:43;100224.38;;;-3.86
61390;BMP280;47260;48.274;19.814;2023-03-17T04:55:16;100223.63;;;-3.83
61390;BMP280;47260;48.274;19.814;2023-03-17T04:56:47;100235.66;;;-3.79
61390;BMP280;47260;48.274;19.814;2023-03-17T04:58:19;100230.03;;;-3.77
61390;BMP280;47260;48.274;19.814;2023-03-17T04:59:50;100222.22;;;-3.74
61390;BMP280;47260;48.274;19.814;2023-03-17T05:01:22;100227.47;;;-3.74
61390;BMP280;47260;48.274;19.814;2023-03-17T05:02:54;100225.94;;;-3.75
61390;BMP280;47260;48.274;19.814;2023-03-17T05:04:25;100237.25;;;-3.67
61390;BMP280;47260;48.274;19.814;2023-03-17T05:05:58;100227.59;;;-3.52
61390;BMP280;47260;48.274;19.814;2023-03-17T05:07:28;100231.09;;;-3.31
61390;BMP280;47260;48.274;19.814;2023-03-17T05:09:00;100244.72;;;-3.15
61390;BMP280;47260;48.274;19.814;2023-03-17T05:10:34;100240.19;;;-3.18
61390;BMP280;47260;48.274;19.814;2023-03-17T05:12:07;100244.28;;;-3.24
61390;BMP280;47260;48.274;19.814;2023-03-17T05:13:39;100242.06;;;-3.18
61390;BMP280;47260;48.274;19.814;2023-03-17T05:15:11;100245.88;;;-3.05
61390;BMP280;47260;48.274;19.814;2023-03-17T05:16:45;100250.47;;;-2.91
61390;BMP280;47260;48.274;19.814;2023-03-17T05:18:17;100241.56;;;-2.55
61390;BMP280;47260;48.274;19.814;2023-03-17T05:19:48;100256.28;;;-2.12
61390;BMP280;47260;48.274;19.814;2023-03-17T05:21:20;100254.41;;;-1.90
61390;BMP280;47260;48.274;19.814;2023-03-17T05:22:52;100264.22;;;-1.76
61390;BMP280;47260;48.274;19.814;2023-03-17T05:24:22;100269.44;;;-1.94
61390;BMP280;47260;48.274;19.814;2023-03-17T05:25:56;100272.09;;;-2.08
61390;BMP280;47260;48.274;19.814;2023-03-17T05:27:26;100273.97;;;-2.09
61390;BMP280;47260;48.274;19.814;2023-03-17T05:28:58;100283.72;;;-2.23
61390;BMP280;47260;48.274;19.814;2023-03-17T05:30:30;100284.13;;;-2.11
61390;BMP280;47260;48.274;19.814;2023-03-17T05:32:02;100290.50;;;-1.87
61390;BMP280;47260;48.274;19.814;2023-03-17T05:33:34;100288.25;;;-1.60
61390;BMP280;47260;48.274;19.814;2023-03-17T05:35:07;100301.75;;;-1.19
61390;BMP280;47260;48.274;19.814;2023-03-17T05:36:37;100300.94;;;-0.95
61390;BMP280;47260;48.274;19.814;2023-03-17T05:38:10;100292.97;;;-0.85
61390;BMP280;47260;48.274;19.814;2023-03-17T05:39:41;100292.94;;;-0.74
61390;BMP280;47260;48.274;19.814;2023-03-17T05:41:14;100281.16;;;-0.55
61390;BMP280;47260;48.274;19.814;2023-03-17T05:42:47;100284.03;;;-0.32
61390;BMP280;47260;48.274;19.814;2023-03-17T05:44:17;100279.88;;;-0.26
61390;BMP280;47260;48.274;19.814;2023-03-17T05:45:49;100281.69;;;-0.16
61390;BMP280;47260;48.274;19.814;2023-03-17T05:47:21;100286.81;;;0.05
61390;BMP280;47260;48.274;19.814;2023-03-17T05:48:53;100288.00;;;0.38
61390;BMP280;47260;48.274;19.814;2023-03-17T05:50:25;100289.94;;;0.71
61390;BMP280;47260;48.274;19.814;2023-03-17T05:51:57;100286.72;;;0.90
61390;BMP280;47260;48.274;19.814;2023-03-17T05:53:29;100287.84;;;1.23
61390;BMP280;47260;48.274;19.814;2023-03-17T05:55:00;100283.66;;;1.79
61390;BMP280;47260;48.274;19.814;2023-03-17T05:56:33;100282.78;;;2.28
61390;BMP280;47260;48.274;19.814;2023-03-17T05:58:05;100268.91;;;2.63
61390;BMP280;47260;48.274;19.814;2023-03-17T05:59:37;100284.97;;;3.12
61390;BMP280;47260;48.274;19.814;2023-03-17T06:01:08;100283.28;;;3.54
61390;BMP280;47260;48.274;19.814;2023-03-17T06:02:40;100288.13;;;4.03
61390;BMP280;47260;48.274;19.814;2023-03-17T06:04:11;100296.59;;;4.43
61390;BMP280;47260;48.274;19.814;2023-03-17T06:05:43;100300.53;;;4.67
61390;BMP280;47260;48.274;19.814;2023-03-17T06:07:15;100289.16;;;5.30
61390;BMP280;47260;48.274;19.814;2023-03-17T06:08:46;100292.06;;;5.35
61390;BMP280;47260;48.274;19.814;2023-03-17T06:10:18;100287.34;;;5.27
61390;BMP280;47260;48.274;19.814;2023-03-17T06:11:51;100281.94;;;5.18
61390;BMP280;47260;48.274;19.814;2023-03-17T06:13:22;100274.50;;;5.38
61390;BMP280;47260;48.274;19.814;2023-03-17T06:14:54;100276.63;;;5.77
61390;BMP280;47260;48.274;19.814;2023-03-17T06:16:25;100279.81;;;6.06
61390;BMP280;47260;48.274;19.814;2023-03-17T06:17:59;100297.47;;;6.56
61390;BMP280;47260;48.274;19.814;2023-03-17T06:19:31;100294.50;;;6.54
61390;BMP280;47260;48.274;19.814;2023-03-17T06:21:01;100292.16;;;6.78
61390;BMP280;47260;48.274;19.814;2023-03-17T06:22:33;100293.88;;;7.02
61390;BMP280;47260;48.274;19.814;2023-03-17T06:24:06;100292.53;;;6.98
61390;BMP280;47260;48.274;19.814;2023-03-17T06:25:38;100295.09;;;7.19
61390;BMP280;47260;48.274;19.814;2023-03-17T06:27:12;100304.09;;;7.62
61390;BMP280;47260;48.274;19.814;2023-03-17T06:28:43;100310.78;;;8.11
61390;BMP280;47260;48.274;19.814;2023-03-17T06:30:15;100302.75;;;8.30
61390;BMP280;47260;48.274;19.814;2023-03-17T06:31:47;100299.66;;;8.22
61390;BMP280;47260;48.274;19.814;2023-03-17T06:33:20;100309.72;;;7.55
61390;BMP280;47260;48.274;19.814;2023-03-17T06:34:51;100315.31;;;7.29
61390;BMP280;47260;48.274;19.814;2023-03-17T06:36:23;100307.53;;;7.71
61390;BMP280;47260;48.274;19.814;2023-03-17T06:37:55;100320.81;;;8.62
61390;BMP280;47260;48.274;19.814;2023-03-17T06:39:27;100311.19;;;9.44
61390;BMP280;47260;48.274;19.814;2023-03-17T06:40:58;100318.72;;;8.57
61390;BMP280;47260;48.274;19.814;2023-03-17T06:42:31;100318.19;;;8.85
61390;BMP280;47260;48.274;19.814;2023-03-17T06:44:03;100308.31;;;9.86
61390;BMP280;47260;48.274;19.814;2023-03-17T06:45:35;100314.84;;;10.09
61390;BMP280;47260;48.274;19.814;2023-03-17T06:47:06;100323.34;;;9.93
61390;BMP280;47260;48.274;19.814;2023-03-17T06:48:37;100330.91;;;9.32
61390;BMP280;47260;48.274;19.814;2023-03-17T06:50:09;100330.66;;;9.68
61390;BMP280;47260;48.274;19.814;2023-03-17T06:51:41;100331.53;;;9.51
61390;BMP280;47260;48.274;19.814;2023-03-17T06:53:13;100330.41;;;10.34
61390;BMP280;47260;48.274;19.814;2023-03-17T06:54:44;100323.69;;;10.88
61390;BMP280;47260;48.274;19.814;2023-03-17T06:56:16;100330.78;;;11.65
61390;BMP280;47260;48.274;19.814;2023-03-17T06:57:49;100341.63;;;12.59
61390;BMP280;47260;48.274;19.814;2023-03-17T06:59:21;100334.94;;;12.18
61390;BMP280;47260;48.274;19.814;2023-03-17T07:00:53;100337.69;;;12.54
61390;BMP280;47260;48.274;19.814;2023-03-17T07:02:24;100339.22;;;13.03
61390;BMP280;47260;48.274;19.814;2023-03-17T07:03:56;100329.19;;;12.67
61390;BMP280;47260;48.274;19.814;2023-03-17T07:05:28;100328.28;;;12.44
61390;BMP280;47260;48.274;19.814;2023-03-17T07:07:00;100336.44;;;12.92
61390;BMP280;47260;48.274;19.814;2023-03-17T07:08:32;100339.47;;;13.11
61390;BMP280;47260;48.274;19.814;2023-03-17T07:10:05;100335.69;;;13.39
61390;BMP280;47260;48.274;19.814;2023-03-17T07:11:39;100331.22;;;13.31
61390;BMP280;47260;48.274;19.814;2023-03-17T07:13:13;100337.03;;;13.82
61390;BMP280;47260;48.274;19.814;2023-03-17T07:14:45;100335.81;;;14.11
61390;BMP280;47260;48.274;19.814;2023-03-17T07:16:17;100338.03;;;13.85
61390;BMP280;47260;48.274;19.814;2023-03-17T07:17:50;100328.91;;;13.60
61390;BMP280;47260;48.274;19.814;2023-03-17T07:19:22;100334.09;;;14.19
61390;BMP280;47260;48.274;19.814;2023-03-17T07:20:53;100336.00;;;14.63
61390;BMP280;47260;48.274;19.814;2023-03-17T07:22:25;100336.28;;;13.82
61390;BMP280;47260;48.274;19.814;2023-03-17T07:23:57;100334.53;;;13.68
61390;BMP280;47260;48.274;19.814;2023-03-17T07:25:29;100336.31;;;14.43
61390;BMP280;47260;48.274;19.814;2023-03-17T07:27:00;100322.22;;;14.77
61390;BMP280;47260;48.274;19.814;2023-03-17T07:28:34;100328.91;;;13.88
61390;BMP280;47260;48.274;19.814;2023-03-17T07:30:07;100335.19;;;13.41
61390;BMP280;47260;48.274;19.814;2023-03-17T07:31:40;100343.41;;;14.24
61390;BMP280;47260;48.274;19.814;2023-03-17T07:33:14;100331.66;;;14.16
61390;BMP280;47260;48.274;19.814;2023-03-17T07:34:46;100323.22;;;13.47
61390;BMP280;47260;48.274;19.814;2023-03-17T07:36:18;100328.63;;;13.64
61390;BMP280;47260;48.274;19.814;2023-03-17T07:37:50;100333.56;;;13.65
61390;BMP280;47260;48.274;19.814;2023-03-17T07:39:22;100331.16;;;14.39
61390;BMP280;47260;48.274;19.814;2023-03-17T07:40:54;100335.56;;;14.26
61390;BMP280;47260;48.274;19.814;2023-03-17T07:42:26;100327.03;;;15.01
61390;BMP280;47260;48.274;19.814;2023-03-17T07:44:00;100332.50;;;14.90
61390;BMP280;47260;48.274;19.814;2023-03-17T07:45:33;100332.88;;;14.09
61390;BMP280;47260;48.274;19.814;2023-03-17T07:47:05;100327.25;;;15.14
61390;BMP280;47260;48.274;19.814;2023-03-17T07:48:37;100326.94;;;15.23
61390;BMP280;47260;48.274;19.814;2023-03-17T07:50:11;100328.13;;;15.33
61390;BMP280;47260;48.274;19.814;2023-03-17T07:51:43;100329.28;;;15.43
61390;BMP280;47260;48.274;19.814;2023-03-17T07:53:15;100327.03;;;15.07
61390;BMP280;47260;48.274;19.814;2023-03-17T07:54:46;100320.94;;;14.95
61390;BMP280;47260;48.274;19.814;2023-03-17T07:56:18;100325.19;;;16.01
61390;BMP280;47260;48.274;19.814;2023-03-17T07:57:50;100326.59;;;16.38
61390;BMP280;47260;48.274;19.814;2023-03-17T07:59:23;100335.00;;;16.58
61390;BMP280;47260;48.274;19.814;2023-03-17T08:00:55;100322.06;;;15.92
61390;BMP280;47260;48.274;19.814;2023-03-17T08:02:27;100334.94;;;16.15
61390;BMP280;47260;48.274;19.814;2023-03-17T08:04:00;100329.78;;;16.84
61390;BMP280;47260;48.274;19.814;2023-03-17T08:05:31;100323.34;;;17.06
61390;BMP280;47260;48.274;19.814;2023-03-17T08:07:03;100329.06;;;16.84
61390;BMP280;47260;48.274;19.814;2023-03-17T08:08:35;100329.19;;;16.24
61390;BMP280;47260;48.274;19.814;2023-03-17T08:10:08;100331.66;;;16.71
61390;BMP280;47260;48.274;19.814;2023-03-17T08:11:42;100331.41;;;15.91
61390;BMP280;47260;48.274;19.814;2023-03-17T08:13:14;100335.75;;;14.77
61390;BMP280;47260;48.274;19.814;2023-03-17T08:14:47;100334.50;;;15.36
61390;BMP280;47260;48.274;19.814;2023-03-17T08:16:19;100335.03;;;16.04
61390;BMP280;47260;48.274;19.814;2023-03-17T08:17:51;100330.91;;;16.52
61390;BMP280;47260;48.274;19.814;2023-03-17T08:19:23;100326.31;;;16.41
61390;BMP280;47260;48.274;19.814;2023-03-17T08:20:54;100333.53;;;15.74
61390;BMP280;47260;48.274;19.814;2023-03-17T08:22:26;100332.91;;;16.46
61390;BMP280;47260;48.274;19.814;2023-03-17T08:23:58;100330.56;;;15.77
61390;BMP280;47260;48.274;19.814;2023-03-17T08:25:30;100335.03;;;15.29
61390;BMP280;47260;48.274;19.814;2023-03-17T08:27:02;100338.50;;;15.29
61390;BMP280;47260;48.274;19.814;2023-03-17T08:28:34;100334.75;;;14.69
61390;BMP280;47260;48.274;19.814;2023-03-17T08:30:09;100332.94;;;15.05
61390;BMP280;47260;48.274;19.814;2023-03-17T08:31:41;100332.91;;;15.11
61390;BMP280;47260;48.274;19.814;2023-03-17T08:33:13;100331.09;;;14.67
61390;BMP280;47260;48.274;19.814;2023-03-17T08:34:45;100336.28;;;13.93
61390;BMP280;47260;48.274;19.814;2023-03-17T08:36:18;100343.41;;;14.24
61390;BMP280;47260;48.274;19.814;2023-03-17T08:37:50;100340.19;;;13.81
61390;BMP280;47260;48.274;19.814;2023-03-17T08:39:22;100341.13;;;13.61
61390;BMP280;47260;48.274;19.814;2023-03-17T08:40:59;100337.53;;;14.09
61390;BMP280;47260;48.274;19.814;2023-03-17T08:42:30;100335.44;;;13.43